»·PEaware :: AAL225 KPDX-KSEA

AAL225 :: KPDX-KSEA

FLIGHT INFORMATION

Flight Status: Arrived
Operator:
American Airlines
More flights by this operator :: More flights under this callsign
Pilot: Michael R. (16974)
Aircraft: AIRBUS A320
(A320)
More flights by this aircraft type
Origin: KPDX Portland Intl
United States
Destination: KSEA Seattle-Tacoma Intl
United States
More flights between these airports :: More routes between these airports
Route: +PTLD1 COUGA KRIEG HAWKZ6
File this flight plan on PilotEdge
Remarks:
Altitude:
(Current/Filed)
24,000ft
Speed:
(Current/Filed)
415kts
Departed: 09-Jul-18 09:15 PM
Arrived: 09-Jul-18 09:46 PM
Distance/Time
Traveled:
112nm/0:30
Distance/Time
To Go:
Arrived

Flight Plot

Page will automatically refresh every two minutes.

Flight plan parsing failed; only flown route is shown


Map Options




Map Legend


Flown Route
Filed Route
Departure Airport
Arrival Airport
Navaid (VOR, NDB)
Fix

Horizontal Profiles

Position Reports

Time Latitude Longitude Heading Altitude Ground
Speed
09-Jul-18 20:58 45.589797 -122.597399 209 32ft 0kts
09-Jul-18 20:59 45.589797 -122.597399 209 32ft 0kts
09-Jul-18 21:00 45.589797 -122.597399 209 32ft 0kts
09-Jul-18 21:01 45.589797 -122.597399 209 32ft 0kts
09-Jul-18 21:02 45.589797 -122.597399 209 32ft 0kts
09-Jul-18 21:03 45.589797 -122.597399 209 32ft 0kts
09-Jul-18 21:04 45.589797 -122.597399 209 32ft 0kts
09-Jul-18 21:05 45.589797 -122.597399 209 32ft 0kts
09-Jul-18 21:06 45.590000 -122.597234 209 32ft 2kts
09-Jul-18 21:07 45.590361 -122.596698 294 32ft 0kts
09-Jul-18 21:08 45.590321 -122.596606 298 32ft 0kts
09-Jul-18 21:09 45.590321 -122.596606 298 32ft 0kts
09-Jul-18 21:10 45.590936 -122.598187 298 32ft 0kts
09-Jul-18 21:11 45.591391 -122.599660 274 32ft 22kts
09-Jul-18 21:12 45.588568 -122.601321 119 32ft 21kts
09-Jul-18 21:13 45.584977 -122.592184 119 32ft 31kts
09-Jul-18 21:14 45.582118 -122.584736 117 32ft 14kts
09-Jul-18 21:15 45.581491 -122.583665 158 32ft 6kts
09-Jul-18 21:16 45.590084 -122.608589 299 461ft 189kts
09-Jul-18 21:17 45.622873 -122.688488 298 4400ft 255kts
09-Jul-18 21:18 45.661859 -122.770527 325 7731ft 273kts
09-Jul-18 21:19 45.741779 -122.767216 5 11004ft 331kts
09-Jul-18 21:20 45.843071 -122.741548 6 12413ft 413kts
09-Jul-18 21:21 45.953896 -122.713202 6 14810ft 434kts
09-Jul-18 21:22 46.071979 -122.682931 4 17495ft 448kts
09-Jul-18 21:23 46.176459 -122.694103 345 20510ft 437kts
09-Jul-18 21:24 46.280423 -122.714582 344 23418ft 433kts
09-Jul-18 21:25 46.403249 -122.725438 352 24270ft 485kts
09-Jul-18 21:26 46.535596 -122.730075 353 24182ft 530kts
09-Jul-18 21:27 46.675171 -122.735149 353 22164ft 510kts
09-Jul-18 21:28 46.800667 -122.721540 28 20803ft 443kts
09-Jul-18 21:29 46.888115 -122.619296 38 17889ft 406kts
09-Jul-18 21:30 46.974291 -122.546027 14 15723ft 361kts
09-Jul-18 21:31 47.065367 -122.506582 16 13649ft 339kts
09-Jul-18 21:32 47.148307 -122.488076 5 11571ft 323kts
09-Jul-18 21:33 47.224841 -122.474876 3 9939ft 295kts
09-Jul-18 21:34 47.300944 -122.463431 3 8516ft 278kts
09-Jul-18 21:35 47.374726 -122.455608 357 7742ft 260kts
09-Jul-18 21:36 47.446713 -122.455653 357 6578ft 261kts
09-Jul-18 21:37 47.518211 -122.455626 358 5175ft 266kts
09-Jul-18 21:38 47.588921 -122.456196 358 3734ft 254kts
09-Jul-18 21:39 47.655157 -122.456777 358 3020ft 230kts
09-Jul-18 21:40 47.715476 -122.440643 53 3021ft 230kts
09-Jul-18 21:41 47.699739 -122.365725 154 3014ft 217kts
09-Jul-18 21:42 47.650031 -122.333426 157 3000ft 215kts
09-Jul-18 21:43 47.602030 -122.304777 180 2977ft 196kts
09-Jul-18 21:44 47.551772 -122.310144 180 2172ft 172kts
09-Jul-18 21:45 47.511392 -122.310558 180 1398ft 129kts
09-Jul-18 21:46 47.476006 -122.310857 181 724ft 127kts
09-Jul-18 21:47 47.450438 -122.311096 179 442ft 40kts
09-Jul-18 21:48 47.445720 -122.305843 119 442ft 25kts
09-Jul-18 21:49 47.445574 -122.304403 91 442ft 0kts
09-Jul-18 21:50 47.445574 -122.304403 91 442ft 0kts
09-Jul-18 21:51 47.445574 -122.304403 91 442ft 0kts
09-Jul-18 21:52 47.445574 -122.304403 91 442ft 0kts
09-Jul-18 21:53 47.445574 -122.304403 91 442ft 0kts
09-Jul-18 21:54 47.445574 -122.304403 91 442ft 0kts
09-Jul-18 21:55 47.445574 -122.304403 91 442ft 0kts
09-Jul-18 21:56 47.445574 -122.304403 91 442ft 0kts
09-Jul-18 21:57 47.445574 -122.304403 91 442ft 0kts
09-Jul-18 21:58 47.445574 -122.304403 91 442ft 0kts
09-Jul-18 21:59 47.445574 -122.304403 91 442ft 0kts
09-Jul-18 22:00 47.445574 -122.304403 91 442ft 0kts
09-Jul-18 22:01 47.445574 -122.304403 91 442ft 0kts

Navigation Log

Ident Type
Flight plan parsing failed, navigation log unavailable